sensor_id;sensor_type;location;lat;lon;timestamp;temperature;humidity
17200;DHT22;8716;52.268;20.968;2024-03-08T00:01:11;1.00;99.90
17200;DHT22;8716;52.268;20.968;2024-03-08T00:03:39;1.00;99.90
17200;DHT22;8716;52.268;20.968;2024-03-08T00:06:08;1.00;99.90
17200;DHT22;8716;52.268;20.968;2024-03-08T00:08:36;1.00;99.90
17200;DHT22;8716;52.268;20.968;2024-03-08T00:11:06;0.90;99.90
17200;DHT22;8716;52.268;20.968;2024-03-08T00:13:35;0.90;99.90
17200;DHT22;8716;52.268;20.968;2024-03-08T00:16:04;0.90;99.90
17200;DHT22;8716;52.268;20.968;2024-03-08T00:18:32;0.90;99.90
17200;DHT22;8716;52.268;20.968;2024-03-08T00:21:00;0.80;99.90
17200;DHT22;8716;52.268;20.968;2024-03-08T00:23:29;0.80;99.90
17200;DHT22;8716;52.268;20.968;2024-03-08T00:25:57;0.80;99.90
17200;DHT22;8716;52.268;20.968;2024-03-08T00:28:26;0.80;99.90
17200;DHT22;8716;52.268;20.968;2024-03-08T00:30:55;0.80;99.90
17200;DHT22;8716;52.268;20.968;2024-03-08T00:33:23;0.80;99.90
17200;DHT22;8716;52.268;20.968;2024-03-08T00:35:51;0.70;99.90
17200;DHT22;8716;52.268;20.968;2024-03-08T00:38:19;0.70;99.90
17200;DHT22;8716;52.268;20.968;2024-03-08T00:40:48;0.70;99.90
17200;DHT22;8716;52.268;20.968;2024-03-08T00:43:16;0.70;99.90
17200;DHT22;8716;52.268;20.968;2024-03-08T00:45:45;0.70;99.90
17200;DHT22;8716;52.268;20.968;2024-03-08T00:48:14;0.60;99.90
17200;DHT22;8716;52.268;20.968;2024-03-08T00:50:42;0.60;99.90
17200;DHT22;8716;52.268;20.968;2024-03-08T00:53:12;0.60;99.90
17200;DHT22;8716;52.268;20.968;2024-03-08T00:55:41;0.60;99.90
17200;DHT22;8716;52.268;20.968;2024-03-08T00:58:09;0.60;99.90
17200;DHT22;8716;52.268;20.968;2024-03-08T01:00:37;0.60;99.90
17200;DHT22;8716;52.268;20.968;2024-03-08T01:03:07;0.60;99.90
17200;DHT22;8716;52.268;20.968;2024-03-08T01:05:35;0.60;99.90
17200;DHT22;8716;52.268;20.968;2024-03-08T01:08:04;0.60;99.90
17200;DHT22;8716;52.268;20.968;2024-03-08T01:10:33;0.50;99.90
17200;DHT22;8716;52.268;20.968;2024-03-08T01:13:01;0.60;99.90
17200;DHT22;8716;52.268;20.968;2024-03-08T01:15:29;0.50;99.90
17200;DHT22;8716;52.268;20.968;2024-03-08T01:17:57;0.50;99.90
17200;DHT22;8716;52.268;20.968;2024-03-08T01:20:29;0.50;99.90
17200;DHT22;8716;52.268;20.968;2024-03-08T01:22:58;0.40;99.90
17200;DHT22;8716;52.268;20.968;2024-03-08T01:25:28;0.40;99.90
17200;DHT22;8716;52.268;20.968;2024-03-08T01:27:59;0.40;99.90
17200;DHT22;8716;52.268;20.968;2024-03-08T01:30:27;0.40;99.90
17200;DHT22;8716;52.268;20.968;2024-03-08T01:32:55;0.40;99.90
17200;DHT22;8716;52.268;20.968;2024-03-08T01:35:23;0.30;99.90
17200;DHT22;8716;52.268;20.968;2024-03-08T01:37:54;0.30;99.90
17200;DHT22;8716;52.268;20.968;2024-03-08T01:40:23;0.30;99.90
17200;DHT22;8716;52.268;20.968;2024-03-08T01:42:51;0.30;99.90
17200;DHT22;8716;52.268;20.968;2024-03-08T01:45:20;0.30;99.90
17200;DHT22;8716;52.268;20.968;2024-03-08T01:47:49;0.30;99.90
17200;DHT22;8716;52.268;20.968;2024-03-08T01:50:17;0.30;99.90
17200;DHT22;8716;52.268;20.968;2024-03-08T01:52:46;0.20;99.90
17200;DHT22;8716;52.268;20.968;2024-03-08T01:55:16;0.20;99.90
17200;DHT22;8716;52.268;20.968;2024-03-08T01:57:45;0.20;99.90
17200;DHT22;8716;52.268;20.968;2024-03-08T02:00:13;0.20;99.90
17200;DHT22;8716;52.268;20.968;2024-03-08T02:02:43;0.20;99.90
17200;DHT22;8716;52.268;20.968;2024-03-08T02:05:15;0.20;99.90
17200;DHT22;8716;52.268;20.968;2024-03-08T02:07:43;0.20;99.90
17200;DHT22;8716;52.268;20.968;2024-03-08T02:10:11;0.20;99.90
17200;DHT22;8716;52.268;20.968;2024-03-08T02:12:42;0.10;99.90
17200;DHT22;8716;52.268;20.968;2024-03-08T02:15:10;0.10;99.90
17200;DHT22;8716;52.268;20.968;2024-03-08T02:17:38;0.10;99.90
17200;DHT22;8716;52.268;20.968;2024-03-08T02:20:07;0.10;99.90
17200;DHT22;8716;52.268;20.968;2024-03-08T02:22:38;0.10;99.90
17200;DHT22;8716;52.268;20.968;2024-03-08T02:25:08;0.10;99.90
17200;DHT22;8716;52.268;20.968;2024-03-08T02:27:36;0.10;99.90
17200;DHT22;8716;52.268;20.968;2024-03-08T02:30:05;0.10;99.90
17200;DHT22;8716;52.268;20.968;2024-03-08T02:32:34;0.10;99.90
17200;DHT22;8716;52.268;20.968;2024-03-08T02:35:02;0.00;99.90
17200;DHT22;8716;52.268;20.968;2024-03-08T02:37:33;0.00;99.90
17200;DHT22;8716;52.268;20.968;2024-03-08T02:40:03;-0.10;99.90
17200;DHT22;8716;52.268;20.968;2024-03-08T02:42:32;0.00;99.90
17200;DHT22;8716;52.268;20.968;2024-03-08T02:45:00;-0.10;99.90
17200;DHT22;8716;52.268;20.968;2024-03-08T02:47:29;0.00;99.90
17200;DHT22;8716;52.268;20.968;2024-03-08T02:49:58;-0.10;99.90
17200;DHT22;8716;52.268;20.968;2024-03-08T02:52:28;0.00;99.90
17200;DHT22;8716;52.268;20.968;2024-03-08T02:54:59;-0.10;99.90
17200;DHT22;8716;52.268;20.968;2024-03-08T02:57:28;-0.10;99.90
17200;DHT22;8716;52.268;20.968;2024-03-08T02:59:56;-0.10;99.90
17200;DHT22;8716;52.268;20.968;2024-03-08T03:02:26;-0.20;99.90
17200;DHT22;8716;52.268;20.968;2024-03-08T03:04:55;-0.20;99.90
17200;DHT22;8716;52.268;20.968;2024-03-08T03:07:23;-0.20;99.90
17200;DHT22;8716;52.268;20.968;2024-03-08T03:09:54;-0.30;99.90
17200;DHT22;8716;52.268;20.968;2024-03-08T03:12:23;-0.20;99.90
17200;DHT22;8716;52.268;20.968;2024-03-08T03:14:52;-0.20;99.90
17200;DHT22;8716;52.268;20.968;2024-03-08T03:17:21;-0.20;99.90
17200;DHT22;8716;52.268;20.968;2024-03-08T03:19:49;-0.30;99.90
17200;DHT22;8716;52.268;20.968;2024-03-08T03:22:17;-0.20;99.90
17200;DHT22;8716;52.268;20.968;2024-03-08T03:24:45;-0.30;99.90
17200;DHT22;8716;52.268;20.968;2024-03-08T03:27:14;-0.30;99.90
17200;DHT22;8716;52.268;20.968;2024-03-08T03:29:43;-0.30;99.90
17200;DHT22;8716;52.268;20.968;2024-03-08T03:32:15;-0.30;99.90
17200;DHT22;8716;52.268;20.968;2024-03-08T03:34:45;-0.30;99.90
17200;DHT22;8716;52.268;20.968;2024-03-08T03:37:13;-0.30;99.90
17200;DHT22;8716;52.268;20.968;2024-03-08T03:39:41;-0.30;99.90
17200;DHT22;8716;52.268;20.968;2024-03-08T03:42:16;-0.30;99.90
17200;DHT22;8716;52.268;20.968;2024-03-08T03:44:45;-0.30;99.90
17200;DHT22;8716;52.268;20.968;2024-03-08T03:47:16;-0.40;99.90
17200;DHT22;8716;52.268;20.968;2024-03-08T03:49:44;-0.40;99.90
17200;DHT22;8716;52.268;20.968;2024-03-08T03:52:13;-0.40;99.90
17200;DHT22;8716;52.268;20.968;2024-03-08T03:54:42;-0.40;99.90
17200;DHT22;8716;52.268;20.968;2024-03-08T03:57:10;-0.50;99.90
17200;DHT22;8716;52.268;20.968;2024-03-08T03:59:40;-0.40;99.90
17200;DHT22;8716;52.268;20.968;2024-03-08T04:02:09;-0.50;99.90
17200;DHT22;8716;52.268;20.968;2024-03-08T04:04:38;-0.50;99.90
17200;DHT22;8716;52.268;20.968;2024-03-08T04:07:07;-0.50;99.90
17200;DHT22;8716;52.268;20.968;2024-03-08T04:09:36;-0.50;99.90
17200;DHT22;8716;52.268;20.968;2024-03-08T04:12:05;-0.50;99.90
17200;DHT22;8716;52.268;20.968;2024-03-08T04:14:34;-0.50;99.90
17200;DHT22;8716;52.268;20.968;2024-03-08T04:17:02;-0.50;99.90
17200;DHT22;8716;52.268;20.968;2024-03-08T04:19:31;-0.60;99.90
17200;DHT22;8716;52.268;20.968;2024-03-08T04:22:03;-0.60;99.90
17200;DHT22;8716;52.268;20.968;2024-03-08T04:24:31;-0.60;99.90
17200;DHT22;8716;52.268;20.968;2024-03-08T04:26:59;-0.60;99.90
17200;DHT22;8716;52.268;20.968;2024-03-08T04:29:28;-0.60;99.90
17200;DHT22;8716;52.268;20.968;2024-03-08T04:31:56;-0.60;99.90
17200;DHT22;8716;52.268;20.968;2024-03-08T04:34:25;-0.60;99.90
17200;DHT22;8716;52.268;20.968;2024-03-08T04:36:57;-0.70;99.90
17200;DHT22;8716;52.268;20.968;2024-03-08T04:39:28;-0.60;99.90
17200;DHT22;8716;52.268;20.968;2024-03-08T04:41:59;-0.70;99.90
17200;DHT22;8716;52.268;20.968;2024-03-08T04:44:32;-0.70;99.90
17200;DHT22;8716;52.268;20.968;2024-03-08T04:47:00;-0.70;99.90
17200;DHT22;8716;52.268;20.968;2024-03-08T04:49:29;-0.70;99.90
17200;DHT22;8716;52.268;20.968;2024-03-08T04:51:57;-0.70;99.90
17200;DHT22;8716;52.268;20.968;2024-03-08T04:54:25;-0.70;99.90
17200;DHT22;8716;52.268;20.968;2024-03-08T04:56:54;-0.70;99.90
17200;DHT22;8716;52.268;20.968;2024-03-08T04:59:23;-0.70;99.90
17200;DHT22;8716;52.268;20.968;2024-03-08T05:01:51;-0.70;99.90
17200;DHT22;8716;52.268;20.968;2024-03-08T05:04:19;-0.70;99.90
17200;DHT22;8716;52.268;20.968;2024-03-08T05:06:48;-0.70;99.90
17200;DHT22;8716;52.268;20.968;2024-03-08T05:09:16;-0.70;99.90
17200;DHT22;8716;52.268;20.968;2024-03-08T05:11:47;-0.70;99.90
17200;DHT22;8716;52.268;20.968;2024-03-08T05:14:18;-0.70;99.90
17200;DHT22;8716;52.268;20.968;2024-03-08T05:16:47;-0.70;99.90
17200;DHT22;8716;52.268;20.968;2024-03-08T05:19:18;-0.70;99.90
17200;DHT22;8716;52.268;20.968;2024-03-08T05:21:47;-0.70;99.90
17200;DHT22;8716;52.268;20.968;2024-03-08T05:24:16;-0.70;99.90
17200;DHT22;8716;52.268;20.968;2024-03-08T05:26:46;-0.70;99.90
17200;DHT22;8716;52.268;20.968;2024-03-08T05:29:15;-0.60;99.90
17200;DHT22;8716;52.268;20.968;2024-03-08T05:31:46;-0.70;99.90
17200;DHT22;8716;52.268;20.968;2024-03-08T05:34:15;-0.60;99.90
17200;DHT22;8716;52.268;20.968;2024-03-08T05:36:46;-0.60;99.90
17200;DHT22;8716;52.268;20.968;2024-03-08T05:39:17;-0.60;99.90
17200;DHT22;8716;52.268;20.968;2024-03-08T05:41:45;-0.60;99.90
17200;DHT22;8716;52.268;20.968;2024-03-08T05:44:14;-0.60;99.90
17200;DHT22;8716;52.268;20.968;2024-03-08T05:46:45;-0.50;99.90
17200;DHT22;8716;52.268;20.968;2024-03-08T05:49:14;-0.50;99.90
17200;DHT22;8716;52.268;20.968;2024-03-08T05:51:44;-0.40;99.90
17200;DHT22;8716;52.268;20.968;2024-03-08T05:54:14;-0.40;99.90
17200;DHT22;8716;52.268;20.968;2024-03-08T05:56:47;-0.40;99.90
17200;DHT22;8716;52.268;20.968;2024-03-08T05:59:15;-0.30;99.90
17200;DHT22;8716;52.268;20.968;2024-03-08T06:01:45;-0.20;99.90
17200;DHT22;8716;52.268;20.968;2024-03-08T06:04:14;-0.20;99.90
17200;DHT22;8716;52.268;20.968;2024-03-08T06:06:42;-0.20;99.90
17200;DHT22;8716;52.268;20.968;2024-03-08T06:09:11;-0.10;99.90
17200;DHT22;8716;52.268;20.968;2024-03-08T06:11:51;0.00;99.90
17200;DHT22;8716;52.268;20.968;2024-03-08T06:14:19;0.10;99.90
17200;DHT22;8716;52.268;20.968;2024-03-08T06:16:49;0.10;99.90
17200;DHT22;8716;52.268;20.968;2024-03-08T06:19:17;0.20;99.90
17200;DHT22;8716;52.268;20.968;2024-03-08T06:21:46;0.30;99.90
17200;DHT22;8716;52.268;20.968;2024-03-08T06:24:14;0.40;99.90
17200;DHT22;8716;52.268;20.968;2024-03-08T06:26:43;0.40;99.90
17200;DHT22;8716;52.268;20.968;2024-03-08T06:29:11;0.50;99.90
17200;DHT22;8716;52.268;20.968;2024-03-08T06:31:40;0.60;99.90
17200;DHT22;8716;52.268;20.968;2024-03-08T06:34:09;0.70;99.90
17200;DHT22;8716;52.268;20.968;2024-03-08T06:36:38;0.80;99.90
17200;DHT22;8716;52.268;20.968;2024-03-08T06:39:06;0.80;99.90
17200;DHT22;8716;52.268;20.968;2024-03-08T06:41:37;0.90;99.90
17200;DHT22;8716;52.268;20.968;2024-03-08T06:44:05;1.00;99.90
17200;DHT22;8716;52.268;20.968;2024-03-08T06:46:35;1.10;99.90
17200;DHT22;8716;52.268;20.968;2024-03-08T06:49:04;1.20;99.90
17200;DHT22;8716;52.268;20.968;2024-03-08T06:51:33;1.20;99.90
17200;DHT22;8716;52.268;20.968;2024-03-08T06:54:01;1.40;99.90
17200;DHT22;8716;52.268;20.968;2024-03-08T06:56:36;1.50;99.90
17200;DHT22;8716;52.268;20.968;2024-03-08T06:59:05;1.60;99.90
17200;DHT22;8716;52.268;20.968;2024-03-08T07:01:34;1.70;99.90
17200;DHT22;8716;52.268;20.968;2024-03-08T07:04:04;1.80;99.90
17200;DHT22;8716;52.268;20.968;2024-03-08T07:06:34;2.00;99.90
17200;DHT22;8716;52.268;20.968;2024-03-08T07:09:03;2.20;99.90
17200;DHT22;8716;52.268;20.968;2024-03-08T07:11:32;2.20;99.90
17200;DHT22;8716;52.268;20.968;2024-03-08T07:14:01;2.30;99.90
17200;DHT22;8716;52.268;20.968;2024-03-08T07:16:33;2.40;99.90
17200;DHT22;8716;52.268;20.968;2024-03-08T07:19:02;2.60;99.90
17200;DHT22;8716;52.268;20.968;2024-03-08T07:21:30;2.60;99.90
17200;DHT22;8716;52.268;20.968;2024-03-08T07:24:00;2.80;99.90
17200;DHT22;8716;52.268;20.968;2024-03-08T07:26:45;2.90;99.90
17200;DHT22;8716;52.268;20.968;2024-03-08T07:29:16;3.00;99.90
17200;DHT22;8716;52.268;20.968;2024-03-08T07:31:44;3.20;99.90
17200;DHT22;8716;52.268;20.968;2024-03-08T07:34:22;3.30;99.90
17200;DHT22;8716;52.268;20.968;2024-03-08T07:36:50;3.40;99.90
17200;DHT22;8716;52.268;20.968;2024-03-08T07:39:20;3.50;99.90
17200;DHT22;8716;52.268;20.968;2024-03-08T07:42:03;3.60;99.90
17200;DHT22;8716;52.268;20.968;2024-03-08T07:44:32;3.70;99.90
17200;DHT22;8716;52.268;20.968;2024-03-08T07:47:00;3.80;99.90
17200;DHT22;8716;52.268;20.968;2024-03-08T07:49:28;4.00;99.90
17200;DHT22;8716;52.268;20.968;2024-03-08T07:51:57;4.10;99.90
17200;DHT22;8716;52.268;20.968;2024-03-08T07:54:27;4.20;99.90
17200;DHT22;8716;52.268;20.968;2024-03-08T07:56:56;4.30;99.90
17200;DHT22;8716;52.268;20.968;2024-03-08T07:59:24;4.40;99.90
17200;DHT22;8716;52.268;20.968;2024-03-08T08:01:52;4.50;99.90
17200;DHT22;8716;52.268;20.968;2024-03-08T08:04:21;4.60;99.90
17200;DHT22;8716;52.268;20.968;2024-03-08T08:06:56;4.80;99.90
17200;DHT22;8716;52.268;20.968;2024-03-08T08:09:24;4.90;99.90
17200;DHT22;8716;52.268;20.968;2024-03-08T08:12:03;5.00;99.90
17200;DHT22;8716;52.268;20.968;2024-03-08T08:14:31;5.20;99.90
17200;DHT22;8716;52.268;20.968;2024-03-08T08:17:00;5.30;99.90
17200;DHT22;8716;52.268;20.968;2024-03-08T08:19:31;5.40;99.90
17200;DHT22;8716;52.268;20.968;2024-03-08T08:22:00;5.50;99.90
17200;DHT22;8716;52.268;20.968;2024-03-08T08:24:28;5.60;99.90
17200;DHT22;8716;52.268;20.968;2024-03-08T08:26:57;5.80;99.90
17200;DHT22;8716;52.268;20.968;2024-03-08T08:29:26;5.90;99.90
17200;DHT22;8716;52.268;20.968;2024-03-08T08:31:54;6.00;99.90
17200;DHT22;8716;52.268;20.968;2024-03-08T08:34:28;6.20;99.90
17200;DHT22;8716;52.268;20.968;2024-03-08T08:36:57;6.30;99.90
17200;DHT22;8716;52.268;20.968;2024-03-08T08:39:25;6.40;99.90
17200;DHT22;8716;52.268;20.968;2024-03-08T08:41:54;6.50;99.90
17200;DHT22;8716;52.268;20.968;2024-03-08T08:44:23;6.70;99.90
17200;DHT22;8716;52.268;20.968;2024-03-08T08:46:54;6.80;99.90
17200;DHT22;8716;52.268;20.968;2024-03-08T08:49:32;7.00;99.90
17200;DHT22;8716;52.268;20.968;2024-03-08T08:52:00;8.50;99.90
17200;DHT22;8716;52.268;20.968;2024-03-08T08:54:42;10.50;99.90
17200;DHT22;8716;52.268;20.968;2024-03-08T08:57:16;12.70;99.90
17200;DHT22;8716;52.268;20.968;2024-03-08T08:59:44;14.60;99.90
17200;DHT22;8716;52.268;20.968;2024-03-08T09:02:14;16.30;99.00
17200;DHT22;8716;52.268;20.968;2024-03-08T09:04:44;18.00;93.70
17200;DHT22;8716;52.268;20.968;2024-03-08T09:07:13;19.40;87.10
17200;DHT22;8716;52.268;20.968;2024-03-08T09:09:42;20.70;80.00
17200;DHT22;8716;52.268;20.968;2024-03-08T09:12:10;21.90;74.60
17200;DHT22;8716;52.268;20.968;2024-03-08T09:14:40;23.00;67.30
17200;DHT22;8716;52.268;20.968;2024-03-08T09:17:09;23.90;61.70
17200;DHT22;8716;52.268;20.968;2024-03-08T09:19:38;24.30;58.20
17200;DHT22;8716;52.268;20.968;2024-03-08T09:22:07;24.50;56.20
17200;DHT22;8716;52.268;20.968;2024-03-08T09:24:35;24.90;54.20
17200;DHT22;8716;52.268;20.968;2024-03-08T09:27:04;25.40;53.80
17200;DHT22;8716;52.268;20.968;2024-03-08T09:29:32;25.70;52.50
17200;DHT22;8716;52.268;20.968;2024-03-08T09:32:00;26.20;51.60
17200;DHT22;8716;52.268;20.968;2024-03-08T09:34:28;26.50;50.20
17200;DHT22;8716;52.268;20.968;2024-03-08T09:37:05;26.90;49.50
17200;DHT22;8716;52.268;20.968;2024-03-08T09:39:36;27.30;47.80
17200;DHT22;8716;52.268;20.968;2024-03-08T09:42:05;27.40;46.90
17200;DHT22;8716;52.268;20.968;2024-03-08T09:44:34;27.70;47.10
17200;DHT22;8716;52.268;20.968;2024-03-08T09:47:03;28.10;45.60
17200;DHT22;8716;52.268;20.968;2024-03-08T09:49:33;28.00;44.10
17200;DHT22;8716;52.268;20.968;2024-03-08T09:52:06;28.00;43.30
17200;DHT22;8716;52.268;20.968;2024-03-08T09:54:35;27.90;43.70
17200;DHT22;8716;52.268;20.968;2024-03-08T09:57:06;27.80;42.80
17200;DHT22;8716;52.268;20.968;2024-03-08T09:59:36;27.90;43.40
17200;DHT22;8716;52.268;20.968;2024-03-08T10:02:15;28.10;43.90
17200;DHT22;8716;52.268;20.968;2024-03-08T10:04:44;28.20;42.90
17200;DHT22;8716;52.268;20.968;2024-03-08T10:07:17;28.60;42.80
17200;DHT22;8716;52.268;20.968;2024-03-08T10:09:45;29.00;42.30
17200;DHT22;8716;52.268;20.968;2024-03-08T10:12:17;29.30;41.70
17200;DHT22;8716;52.268;20.968;2024-03-08T10:14:46;29.40;41.10
17200;DHT22;8716;52.268;20.968;2024-03-08T10:21:29;29.40;40.10
17200;DHT22;8716;52.268;20.968;2024-03-08T10:23:58;29.10;40.40
17200;DHT22;8716;52.268;20.968;2024-03-08T10:26:27;29.00;40.20
17200;DHT22;8716;52.268;20.968;2024-03-08T10:28:58;28.80;40.50
17200;DHT22;8716;52.268;20.968;2024-03-08T10:31:26;28.70;40.90
17200;DHT22;8716;52.268;20.968;2024-03-08T10:33:57;28.90;40.30
17200;DHT22;8716;52.268;20.968;2024-03-08T10:36:26;28.90;39.80
17200;DHT22;8716;52.268;20.968;2024-03-08T10:38:58;28.70;40.30
17200;DHT22;8716;52.268;20.968;2024-03-08T10:41:30;28.80;39.90
17200;DHT22;8716;52.268;20.968;2024-03-08T10:44:18;28.60;39.20
17200;DHT22;8716;52.268;20.968;2024-03-08T10:47:00;28.20;39.00
17200;DHT22;8716;52.268;20.968;2024-03-08T10:49:35;28.10;39.40
17200;DHT22;8716;52.268;20.968;2024-03-08T10:52:06;27.80;38.90
17200;DHT22;8716;52.268;20.968;2024-03-08T10:54:40;27.60;39.80
17200;DHT22;8716;52.268;20.968;2024-03-08T10:57:12;27.40;39.90
17200;DHT22;8716;52.268;20.968;2024-03-08T10:59:42;27.40;38.90
17200;DHT22;8716;52.268;20.968;2024-03-08T11:02:11;27.30;39.10
17200;DHT22;8716;52.268;20.968;2024-03-08T11:04:45;27.30;39.50
17200;DHT22;8716;52.268;20.968;2024-03-08T11:07:14;27.20;39.10
17200;DHT22;8716;52.268;20.968;2024-03-08T11:09:47;27.10;39.60
17200;DHT22;8716;52.268;20.968;2024-03-08T11:12:20;26.90;39.40
17200;DHT22;8716;52.268;20.968;2024-03-08T11:14:50;26.70;39.50
17200;DHT22;8716;52.268;20.968;2024-03-08T11:17:26;26.60;39.60
17200;DHT22;8716;52.268;20.968;2024-03-08T11:19:55;26.10;39.70
17200;DHT22;8716;52.268;20.968;2024-03-08T11:22:31;25.80;40.00
17200;DHT22;8716;52.268;20.968;2024-03-08T11:25:03;25.40;40.10
17200;DHT22;8716;52.268;20.968;2024-03-08T11:27:35;25.00;40.60
17200;DHT22;8716;52.268;20.968;2024-03-08T11:30:07;24.60;40.70
17200;DHT22;8716;52.268;20.968;2024-03-08T11:32:45;24.20;41.00
17200;DHT22;8716;52.268;20.968;2024-03-08T11:35:18;23.70;41.70
17200;DHT22;8716;52.268;20.968;2024-03-08T11:37:47;23.10;42.30
17200;DHT22;8716;52.268;20.968;2024-03-08T11:40:17;22.70;43.20
17200;DHT22;8716;52.268;20.968;2024-03-08T11:42:48;22.10;43.00
17200;DHT22;8716;52.268;20.968;2024-03-08T11:45:19;21.50;44.60
17200;DHT22;8716;52.268;20.968;2024-03-08T11:47:48;21.00;43.90
17200;DHT22;8716;52.268;20.968;2024-03-08T11:50:18;20.40;44.90
17200;DHT22;8716;52.268;20.968;2024-03-08T11:52:48;19.70;45.40
17200;DHT22;8716;52.268;20.968;2024-03-08T11:55:18;19.20;46.40
17200;DHT22;8716;52.268;20.968;2024-03-08T11:57:48;18.80;46.90
17200;DHT22;8716;52.268;20.968;2024-03-08T12:00:18;18.70;47.20
17200;DHT22;8716;52.268;20.968;2024-03-08T12:03:04;18.50;47.60
17200;DHT22;8716;52.268;20.968;2024-03-08T12:05:33;17.70;48.50
17200;DHT22;8716;52.268;20.968;2024-03-08T12:08:02;17.40;49.00
17200;DHT22;8716;52.268;20.968;2024-03-08T12:10:33;17.20;50.10
17200;DHT22;8716;52.268;20.968;2024-03-08T12:13:02;16.80;49.80
17200;DHT22;8716;52.268;20.968;2024-03-08T12:15:33;16.40;50.50
17200;DHT22;8716;52.268;20.968;2024-03-08T12:18:01;16.20;50.50
17200;DHT22;8716;52.268;20.968;2024-03-08T12:20:32;15.90;51.20
17200;DHT22;8716;52.268;20.968;2024-03-08T12:23:00;15.60;51.60
17200;DHT22;8716;52.268;20.968;2024-03-08T12:25:31;15.50;51.70
17200;DHT22;8716;52.268;20.968;2024-03-08T12:28:11;15.20;52.40
17200;DHT22;8716;52.268;20.968;2024-03-08T12:30:46;15.00;53.70
17200;DHT22;8716;52.268;20.968;2024-03-08T12:33:15;14.90;53.30
17200;DHT22;8716;52.268;20.968;2024-03-08T12:35:50;14.80;53.00
17200;DHT22;8716;52.268;20.968;2024-03-08T12:38:22;14.70;54.20
17200;DHT22;8716;52.268;20.968;2024-03-08T12:40:55;14.60;53.90
17200;DHT22;8716;52.268;20.968;2024-03-08T12:43:26;14.50;54.30
17200;DHT22;8716;52.268;20.968;2024-03-08T12:45:58;14.50;54.10
17200;DHT22;8716;52.268;20.968;2024-03-08T12:48:27;14.60;54.10
17200;DHT22;8716;52.268;20.968;2024-03-08T12:50:55;14.70;53.20
17200;DHT22;8716;52.268;20.968;2024-03-08T12:53:23;14.80;53.50
17200;DHT22;8716;52.268;20.968;2024-03-08T12:55:52;14.90;53.00
17200;DHT22;8716;52.268;20.968;2024-03-08T12:58:23;15.10;53.60
17200;DHT22;8716;52.268;20.968;2024-03-08T13:00:54;15.10;53.30
17200;DHT22;8716;52.268;20.968;2024-03-08T13:03:22;15.10;52.50
17200;DHT22;8716;52.268;20.968;2024-03-08T13:05:51;15.20;52.80
17200;DHT22;8716;52.268;20.968;2024-03-08T13:08:19;15.10;52.70
17200;DHT22;8716;52.268;20.968;2024-03-08T13:10:49;15.10;52.30
17200;DHT22;8716;52.268;20.968;2024-03-08T13:13:18;15.00;52.50
17200;DHT22;8716;52.268;20.968;2024-03-08T13:15:46;14.90;52.70
17200;DHT22;8716;52.268;20.968;2024-03-08T13:18:17;14.80;52.70
17200;DHT22;8716;52.268;20.968;2024-03-08T13:20:45;14.70;52.70
17200;DHT22;8716;52.268;20.968;2024-03-08T13:23:16;14.60;52.90
17200;DHT22;8716;52.268;20.968;2024-03-08T13:25:45;14.60;52.80
17200;DHT22;8716;52.268;20.968;2024-03-08T13:28:14;14.60;53.10
17200;DHT22;8716;52.268;20.968;2024-03-08T13:30:43;14.70;53.60
17200;DHT22;8716;52.268;20.968;2024-03-08T13:33:12;14.70;53.50
17200;DHT22;8716;52.268;20.968;2024-03-08T13:35:43;14.70;52.70
17200;DHT22;8716;52.268;20.968;2024-03-08T13:38:13;14.70;52.50
17200;DHT22;8716;52.268;20.968;2024-03-08T13:40:41;14.50;52.20
17200;DHT22;8716;52.268;20.968;2024-03-08T13:43:10;14.50;53.10
17200;DHT22;8716;52.268;20.968;2024-03-08T13:45:40;14.40;53.40
17200;DHT22;8716;52.268;20.968;2024-03-08T13:48:08;14.30;52.00
17200;DHT22;8716;52.268;20.968;2024-03-08T13:50:40;14.10;52.70
17200;DHT22;8716;52.268;20.968;2024-03-08T13:53:10;14.10;53.40
17200;DHT22;8716;52.268;20.968;2024-03-08T13:55:38;14.10;53.20
17200;DHT22;8716;52.268;20.968;2024-03-08T13:58:08;14.00;52.90
17200;DHT22;8716;52.268;20.968;2024-03-08T14:00:37;13.90;53.40
17200;DHT22;8716;52.268;20.968;2024-03-08T14:03:05;13.90;53.50
17200;DHT22;8716;52.268;20.968;2024-03-08T14:05:33;13.80;53.40
17200;DHT22;8716;52.268;20.968;2024-03-08T14:08:02;13.60;53.70
17200;DHT22;8716;52.268;20.968;2024-03-08T14:10:33;13.50;54.60
17200;DHT22;8716;52.268;20.968;2024-03-08T14:13:01;13.40;54.40
17200;DHT22;8716;52.268;20.968;2024-03-08T14:15:32;13.30;54.60
17200;DHT22;8716;52.268;20.968;2024-03-08T14:18:00;13.30;54.80
17200;DHT22;8716;52.268;20.968;2024-03-08T14:20:29;13.20;55.00
17200;DHT22;8716;52.268;20.968;2024-03-08T14:23:00;13.20;55.40
17200;DHT22;8716;52.268;20.968;2024-03-08T14:25:28;13.20;55.40
17200;DHT22;8716;52.268;20.968;2024-03-08T14:27:58;13.10;55.50
17200;DHT22;8716;52.268;20.968;2024-03-08T14:30:30;13.00;55.40
17200;DHT22;8716;52.268;20.968;2024-03-08T14:33:05;12.70;55.10
17200;DHT22;8716;52.268;20.968;2024-03-08T14:35:36;12.60;55.20
17200;DHT22;8716;52.268;20.968;2024-03-08T14:38:05;12.60;55.00
17200;DHT22;8716;52.268;20.968;2024-03-08T14:40:36;12.50;55.30
17200;DHT22;8716;52.268;20.968;2024-03-08T14:43:06;12.30;55.00
17200;DHT22;8716;52.268;20.968;2024-03-08T14:45:37;12.10;55.40
17200;DHT22;8716;52.268;20.968;2024-03-08T14:48:06;11.90;55.60
17200;DHT22;8716;52.268;20.968;2024-03-08T14:50:35;11.80;55.70
17200;DHT22;8716;52.268;20.968;2024-03-08T14:53:04;11.70;56.00
17200;DHT22;8716;52.268;20.968;2024-03-08T14:55:34;11.70;56.40
17200;DHT22;8716;52.268;20.968;2024-03-08T14:58:06;11.70;55.80
17200;DHT22;8716;52.268;20.968;2024-03-08T15:00:36;11.70;55.60
17200;DHT22;8716;52.268;20.968;2024-03-08T15:03:05;11.50;56.90
17200;DHT22;8716;52.268;20.968;2024-03-08T15:05:34;11.30;56.60
17200;DHT22;8716;52.268;20.968;2024-03-08T15:08:06;11.10;57.10
17200;DHT22;8716;52.268;20.968;2024-03-08T15:10:39;10.90;57.10
17200;DHT22;8716;52.268;20.968;2024-03-08T15:13:10;10.80;57.50
17200;DHT22;8716;52.268;20.968;2024-03-08T15:15:50;10.80;58.60
17200;DHT22;8716;52.268;20.968;2024-03-08T15:18:25;10.70;59.60
17200;DHT22;8716;52.268;20.968;2024-03-08T15:20:58;10.60;59.50
17200;DHT22;8716;52.268;20.968;2024-03-08T15:23:26;10.60;59.40
17200;DHT22;8716;52.268;20.968;2024-03-08T15:25:54;10.50;58.90
17200;DHT22;8716;52.268;20.968;2024-03-08T15:28:24;10.40;59.30
17200;DHT22;8716;52.268;20.968;2024-03-08T15:31:01;10.40;59.40
17200;DHT22;8716;52.268;20.968;2024-03-08T15:33:33;10.30;59.30
17200;DHT22;8716;52.268;20.968;2024-03-08T15:36:06;10.20;60.00
17200;DHT22;8716;52.268;20.968;2024-03-08T15:38:36;10.20;60.40
17200;DHT22;8716;52.268;20.968;2024-03-08T15:41:05;10.10;60.50
17200;DHT22;8716;52.268;20.968;2024-03-08T15:43:39;10.10;60.50
17200;DHT22;8716;52.268;20.968;2024-03-08T15:46:08;10.10;60.60
17200;DHT22;8716;52.268;20.968;2024-03-08T15:48:37;10.00;60.80
17200;DHT22;8716;52.268;20.968;2024-03-08T15:51:06;9.90;61.20
17200;DHT22;8716;52.268;20.968;2024-03-08T15:53:37;9.90;62.20
17200;DHT22;8716;52.268;20.968;2024-03-08T15:56:06;9.80;62.90
17200;DHT22;8716;52.268;20.968;2024-03-08T15:58:36;9.70;63.00